createdAt,value
2018-06-18T00:57:52.787Z,99.90
2018-06-18T01:00:22.149Z,99.90
2018-06-18T01:02:50.945Z,99.90
2018-06-18T01:05:19.538Z,99.90
2018-06-18T01:07:48.392Z,99.90
2018-06-18T01:10:17.041Z,99.90
2018-06-18T01:12:45.452Z,99.90
2018-06-18T01:15:14.145Z,99.90
2018-06-18T01:17:42.578Z,99.90
2018-06-18T01:20:11.088Z,99.90
2018-06-18T01:22:42.573Z,99.90
2018-06-18T01:25:11.911Z,99.90
2018-06-18T01:27:40.558Z,99.90
2018-06-18T01:30:09.291Z,99.90
2018-06-18T01:32:37.780Z,99.90
2018-06-18T01:35:07.889Z,99.90
2018-06-18T01:37:36.696Z,99.90
2018-06-18T01:40:05.672Z,99.90
2018-06-18T01:42:34.070Z,99.90
2018-06-18T01:45:02.706Z,99.90
2018-06-18T01:47:31.506Z,99.90
2018-06-18T01:52:28.463Z,99.90
2018-06-18T01:57:25.032Z,99.90
2018-06-18T01:59:53.592Z,99.90
2018-06-18T02:02:23.188Z,99.90
2018-06-18T02:04:51.557Z,99.90
2018-06-18T02:07:19.934Z,99.90
2018-06-18T02:09:49.168Z,99.90
2018-06-18T02:12:17.650Z,99.90
2018-06-18T02:14:46.318Z,99.90
2018-06-18T02:17:14.711Z,99.90
2018-06-18T02:19:43.412Z,99.90
2018-06-18T02:22:12.184Z,99.90
2018-06-18T02:24:40.746Z,99.90
2018-06-18T02:27:16.953Z,99.90
2018-06-18T02:29:52.327Z,99.90
2018-06-18T02:32:26.074Z,99.90
2018-06-18T02:35:00.100Z,99.90
2018-06-18T02:37:33.714Z,99.90
2018-06-18T02:40:08.245Z,99.90
2018-06-18T02:42:36.658Z,99.90
2018-06-18T02:45:05.634Z,99.90
2018-06-18T02:47:34.605Z,99.90
2018-06-18T02:50:03.131Z,99.90
2018-06-18T02:52:32.206Z,99.90
2018-06-18T02:55:00.587Z,99.90
2018-06-18T02:57:29.478Z,99.90
2018-06-18T02:59:58.241Z,99.90
2018-06-18T03:02:27.129Z,99.90
2018-06-18T03:04:55.825Z,99.90
2018-06-18T03:07:24.425Z,99.90
2018-06-18T03:09:54.185Z,99.90
2018-06-18T03:12:22.797Z,99.90
2018-06-18T03:14:51.707Z,99.90
2018-06-18T03:17:20.660Z,99.90
2018-06-18T03:19:54.583Z,99.90
2018-06-18T03:22:28.880Z,99.90
2018-06-18T03:27:36.894Z,99.90
2018-06-18T03:30:05.654Z,99.90
2018-06-18T03:32:34.094Z,99.90
2018-06-18T03:35:02.986Z,99.90
2018-06-18T03:37:31.534Z,99.90
2018-06-18T03:42:28.287Z,99.90
2018-06-18T03:45:31.097Z,99.90
2018-06-18T03:48:05.660Z,99.90
2018-06-18T03:50:34.615Z,99.90
2018-06-18T03:53:03.123Z,99.90
2018-06-18T03:55:41.633Z,99.90
2018-06-18T03:58:10.224Z,99.90
2018-06-18T04:01:55.552Z,99.90
2018-06-18T04:04:30.078Z,99.90
2018-06-18T04:07:04.445Z,99.90
2018-06-18T04:09:38.085Z,99.90
2018-06-18T04:12:09.874Z,99.90
2018-06-18T04:14:38.259Z,99.90
2018-06-18T04:17:06.936Z,99.90
2018-06-18T04:19:35.589Z,99.90
2018-06-18T04:22:04.259Z,99.90
2018-06-18T04:24:32.679Z,99.90
2018-06-18T04:27:01.109Z,99.90
2018-06-18T04:29:29.941Z,99.90
2018-06-18T04:31:58.343Z,99.90
2018-06-18T04:34:39.746Z,99.90
2018-06-18T04:37:09.320Z,99.90
2018-06-18T04:42:12.243Z,99.90
2018-06-18T04:44:45.967Z,99.90
2018-06-18T04:48:19.228Z,99.90
2018-06-18T04:50:52.888Z,99.90
2018-06-18T04:53:21.615Z,99.90
2018-06-18T04:55:50.216Z,99.90
2018-06-18T04:58:18.628Z,99.90
2018-06-18T05:00:59.960Z,99.90
2018-06-18T05:03:28.440Z,99.90
2018-06-18T05:05:59.439Z,99.90
2018-06-18T05:10:36.393Z,99.90
2018-06-18T05:13:06.374Z,99.90
2018-06-18T05:15:37.105Z,99.90
2018-06-18T05:18:05.979Z,99.90
2018-06-18T05:20:34.485Z,99.90
2018-06-18T05:23:05.652Z,99.90
2018-06-18T05:25:34.345Z,99.90
2018-06-18T05:28:02.785Z,99.90
2018-06-18T05:30:31.691Z,99.90
2018-06-18T05:35:29.154Z,99.90
2018-06-18T05:38:03.183Z,99.90
2018-06-18T05:40:31.590Z,99.90
2018-06-18T05:43:00.445Z,99.90
2018-06-18T05:45:29.438Z,99.90
2018-06-18T05:47:57.881Z,99.90
2018-06-18T05:50:26.487Z,99.90
2018-06-18T05:52:57.836Z,99.90
2018-06-18T05:57:57.725Z,99.90
2018-06-18T06:00:26.367Z,99.90
2018-06-18T06:02:54.926Z,99.90
2018-06-18T06:05:24.947Z,99.90
2018-06-18T06:07:54.365Z,99.90
2018-06-18T06:10:22.798Z,99.90
2018-06-18T06:12:52.137Z,99.90
2018-06-18T06:15:20.522Z,99.90
2018-06-18T06:17:49.482Z,99.90
2018-06-18T06:20:18.482Z,99.90
2018-06-18T06:22:47.168Z,99.90
2018-06-18T06:25:16.605Z,99.90
2018-06-18T06:27:45.200Z,99.90
2018-06-18T06:30:14.889Z,99.90
2018-06-18T06:32:43.385Z,99.90
2018-06-18T06:35:30.303Z,99.90
2018-06-18T06:37:59.194Z,99.90
2018-06-18T06:40:27.752Z,99.90
2018-06-18T06:45:25.257Z,99.90
2018-06-18T06:47:53.693Z,99.90
2018-06-18T06:50:22.423Z,99.90
2018-06-18T06:52:51.025Z,99.90
2018-06-18T06:55:19.636Z,99.90
2018-06-18T06:57:48.042Z,99.90
2018-06-18T07:00:16.660Z,99.90
2018-06-18T07:02:45.045Z,99.90
2018-06-18T07:05:13.434Z,99.90
2018-06-18T07:07:42.579Z,99.90
2018-06-18T07:10:11.387Z,99.90
2018-06-18T07:12:39.933Z,99.90
2018-06-18T07:15:08.373Z,99.90
2018-06-18T07:17:37.912Z,99.90
2018-06-18T07:20:06.913Z,99.90
2018-06-18T07:22:35.421Z,99.90
2018-06-18T07:25:03.820Z,99.90
2018-06-18T07:27:32.233Z,99.90
2018-06-18T07:30:00.647Z,99.90
2018-06-18T07:32:29.647Z,99.90
2018-06-18T07:34:58.294Z,99.90
2018-06-18T07:37:26.739Z,99.90
2018-06-18T07:39:55.605Z,99.90
2018-06-18T07:42:24.053Z,99.90
2018-06-18T07:44:52.447Z,99.90
2018-06-18T07:47:21.127Z,99.90
2018-06-18T07:49:49.633Z,99.90
2018-06-18T07:52:18.582Z,99.90
2018-06-18T07:54:47.627Z,99.90
2018-06-18T07:57:16.177Z,99.90
2018-06-18T07:59:44.604Z,99.90
2018-06-18T08:02:13.483Z,99.90
2018-06-18T08:04:42.135Z,99.90
2018-06-18T08:07:11.071Z,99.90
2018-06-18T08:09:39.505Z,99.90
2018-06-18T08:12:08.057Z,99.90
2018-06-18T08:14:36.988Z,99.90
2018-06-18T08:17:05.641Z,99.90
2018-06-18T08:19:34.179Z,99.90
2018-06-18T08:22:02.811Z,99.90
2018-06-18T08:24:31.373Z,99.90
2018-06-18T08:26:59.879Z,99.90
2018-06-18T08:29:29.312Z,99.90
2018-06-18T08:31:58.421Z,99.90
2018-06-18T08:34:27.318Z,99.90
2018-06-18T08:36:55.726Z,99.90
2018-06-18T08:39:24.189Z,99.90
2018-06-18T08:41:52.657Z,99.90
2018-06-18T08:44:21.414Z,99.90
2018-06-18T08:46:50.732Z,99.90
2018-06-18T08:49:19.736Z,99.90
2018-06-18T08:51:53.819Z,99.90
2018-06-18T08:57:01.196Z,99.90
2018-06-18T08:59:35.926Z,99.90
2018-06-18T09:02:04.735Z,99.90
2018-06-18T09:04:38.983Z,99.90
2018-06-18T09:07:15.998Z,99.90
2018-06-18T09:09:45.609Z,99.90
2018-06-18T09:12:14.061Z,99.90
2018-06-18T09:14:43.457Z,99.90
2018-06-18T09:17:13.115Z,99.90
2018-06-18T09:19:42.007Z,99.90
2018-06-18T09:22:10.612Z,96.40
2018-06-18T09:24:39.199Z,99.50
2018-06-18T09:27:13.617Z,96.20
2018-06-18T09:29:47.496Z,96.40
2018-06-18T09:32:16.709Z,94.40
2018-06-18T09:34:45.181Z,95.50
2018-06-18T09:37:14.003Z,93.10
2018-06-18T09:39:42.468Z,92.40
2018-06-18T09:42:10.918Z,91.80
2018-06-18T09:44:39.303Z,90.40
2018-06-18T09:47:07.805Z,91.40
2018-06-18T09:49:41.674Z,81.90
2018-06-18T09:52:16.609Z,89.40
2018-06-18T09:54:51.745Z,83.50
2018-06-18T09:57:26.717Z,77.30
2018-06-18T10:00:16.834Z,73.60
2018-06-18T10:02:46.452Z,75.00
2018-06-18T10:05:14.906Z,72.20
2018-06-18T10:07:43.694Z,67.30
2018-06-18T10:10:12.167Z,60.60
2018-06-18T10:12:41.261Z,57.60
2018-06-18T10:15:09.930Z,58.10
2018-06-18T10:17:38.608Z,52.40
2018-06-18T10:20:07.142Z,51.90
2018-06-18T10:22:35.543Z,56.50
2018-06-18T10:25:04.698Z,52.60
2018-06-18T10:27:33.708Z,55.60
2018-06-18T10:30:02.335Z,53.20
2018-06-18T10:32:36.900Z,54.00
2018-06-18T10:37:15.803Z,55.00
2018-06-18T10:39:49.740Z,59.50
2018-06-18T10:42:23.977Z,60.90
2018-06-18T10:44:52.808Z,63.00
2018-06-18T10:47:21.418Z,59.90
2018-06-18T10:49:49.815Z,62.20
2018-06-18T10:52:19.368Z,61.50
2018-06-18T10:54:47.747Z,57.70
2018-06-18T10:57:16.276Z,64.20
2018-06-18T10:59:45.996Z,60.30
2018-06-18T11:02:14.518Z,60.20
2018-06-18T11:04:48.990Z,60.30
2018-06-18T11:07:17.353Z,59.90
2018-06-18T11:09:45.828Z,63.70
2018-06-18T11:12:14.602Z,63.70
2018-06-18T11:14:43.430Z,67.40
2018-06-18T11:17:18.013Z,72.50
2018-06-18T11:19:52.332Z,74.10
2018-06-18T11:22:23.341Z,65.50
2018-06-18T11:24:57.632Z,67.50
2018-06-18T11:27:26.152Z,70.20
2018-06-18T11:29:54.699Z,66.10
2018-06-18T11:32:23.782Z,66.60
2018-06-18T11:34:52.471Z,68.10
2018-06-18T11:37:21.099Z,72.40
2018-06-18T11:39:49.512Z,72.10
2018-06-18T11:42:17.947Z,75.60
2018-06-18T11:44:46.432Z,67.00
2018-06-18T11:47:14.839Z,69.30
2018-06-18T11:49:43.570Z,74.20
2018-06-18T11:52:11.963Z,68.60
2018-06-18T11:54:40.357Z,73.00
2018-06-18T11:57:08.989Z,76.30
2018-06-18T11:59:43.174Z,73.90
2018-06-18T12:02:17.377Z,68.30
2018-06-18T12:04:51.380Z,69.50
2018-06-18T12:07:25.328Z,71.50
2018-06-18T12:09:54.914Z,71.70
2018-06-18T12:12:23.321Z,70.40
2018-06-18T12:14:51.779Z,72.10
2018-06-18T12:17:20.497Z,71.70
2018-06-18T12:19:48.907Z,72.70
2018-06-18T12:22:17.325Z,70.50
2018-06-18T12:24:45.759Z,73.60
2018-06-18T12:27:17.390Z,68.60
2018-06-18T12:29:45.963Z,66.30
2018-06-18T12:32:14.555Z,68.00
2018-06-18T12:34:43.125Z,70.90
2018-06-18T12:37:11.716Z,71.10
2018-06-18T12:39:40.236Z,72.60
2018-06-18T12:42:09.572Z,68.00
2018-06-18T12:45:47.873Z,67.60
2018-06-18T12:48:22.202Z,65.90
2018-06-18T12:50:55.831Z,68.80
2018-06-18T12:53:30.061Z,70.90
2018-06-18T12:56:03.732Z,72.10
2018-06-18T12:58:33.011Z,68.90
2018-06-18T13:01:01.408Z,68.90
2018-06-18T13:03:30.491Z,68.60
2018-06-18T13:05:59.507Z,66.30
2018-06-18T13:08:28.108Z,72.30
2018-06-18T13:10:56.977Z,70.30
2018-06-18T13:13:25.483Z,70.80
2018-06-18T13:15:54.053Z,70.10
2018-06-18T13:20:51.132Z,71.90
2018-06-18T13:23:20.020Z,70.50
2018-06-18T13:25:49.774Z,70.80
2018-06-18T13:28:18.623Z,69.40
2018-06-18T13:30:47.363Z,63.90
2018-06-18T13:33:15.952Z,71.20
2018-06-18T13:35:44.412Z,73.90
2018-06-18T13:38:19.038Z,75.60
2018-06-18T13:40:52.814Z,70.30
2018-06-18T13:44:26.098Z,69.80
2018-06-18T13:49:33.832Z,68.10
2018-06-18T13:52:02.504Z,71.40
2018-06-18T13:54:31.528Z,69.60
2018-06-18T13:57:00.261Z,69.00
2018-06-18T13:59:29.387Z,72.00
2018-06-18T14:01:58.505Z,68.50
2018-06-18T14:04:27.193Z,68.60
2018-06-18T14:06:55.969Z,70.70
2018-06-18T14:09:24.963Z,73.20
2018-06-18T14:11:53.762Z,69.50
2018-06-18T14:14:22.717Z,69.80
2018-06-18T14:19:24.901Z,67.50
2018-06-18T14:21:53.932Z,70.90
2018-06-18T14:24:23.215Z,67.70
2018-06-18T14:26:51.896Z,68.00
2018-06-18T14:29:26.448Z,66.30
2018-06-18T14:31:56.814Z,70.60
2018-06-18T14:34:31.343Z,71.00
2018-06-18T14:37:05.621Z,71.30
2018-06-18T14:40:38.729Z,76.60
2018-06-18T14:43:07.505Z,76.30
2018-06-18T14:45:36.290Z,69.90
2018-06-18T14:48:05.865Z,74.70
2018-06-18T14:50:34.519Z,73.20
2018-06-18T14:53:04.065Z,74.00
2018-06-18T14:55:32.730Z,72.20
2018-06-18T14:58:01.454Z,75.10
2018-06-18T15:00:31.590Z,72.50
2018-06-18T15:03:00.190Z,74.00
2018-06-18T15:05:32.671Z,70.00
2018-06-18T15:08:01.396Z,65.60
2018-06-18T15:10:36.004Z,67.20
2018-06-18T15:13:05.680Z,71.60
2018-06-18T15:15:40.257Z,70.80
2018-06-18T15:18:09.071Z,72.50
2018-06-18T15:20:37.481Z,70.80
2018-06-18T15:23:07.647Z,70.00
2018-06-18T15:25:40.319Z,69.50
2018-06-18T15:28:09.809Z,69.40
2018-06-18T15:30:38.681Z,69.10
2018-06-18T15:33:07.091Z,69.90
2018-06-18T15:35:35.852Z,68.00
2018-06-18T15:38:04.976Z,69.40
2018-06-18T15:40:33.738Z,69.40
2018-06-18T15:43:02.764Z,66.50
2018-06-18T15:45:32.225Z,70.60
2018-06-18T15:48:00.677Z,72.10
2018-06-18T15:50:29.672Z,72.20
2018-06-18T15:52:58.829Z,71.00
2018-06-18T15:55:28.038Z,71.10
2018-06-18T15:57:56.776Z,70.70
2018-06-18T16:00:25.462Z,71.20
2018-06-18T16:02:53.966Z,72.60
2018-06-18T16:05:22.536Z,70.50
2018-06-18T16:07:51.677Z,72.70
2018-06-18T16:10:20.814Z,70.50
2018-06-18T16:12:49.579Z,74.50
2018-06-18T16:15:18.255Z,75.50
2018-06-18T16:17:46.856Z,71.00
2018-06-18T16:20:15.545Z,76.50
2018-06-18T16:22:44.166Z,74.10
2018-06-18T16:25:13.189Z,76.20
2018-06-18T16:27:41.772Z,77.80
2018-06-18T16:30:10.583Z,78.30
2018-06-18T16:32:39.238Z,76.00
2018-06-18T16:35:07.977Z,76.20
2018-06-18T16:37:37.038Z,74.40
2018-06-18T16:40:06.020Z,70.70
2018-06-18T16:42:34.867Z,73.10
2018-06-18T16:47:31.834Z,71.00
2018-06-18T16:50:00.521Z,72.80
2018-06-18T16:52:29.424Z,75.20
2018-06-18T16:54:58.033Z,75.20
2018-06-18T16:57:27.356Z,75.20
2018-06-18T16:59:56.127Z,76.80
2018-06-18T17:02:24.561Z,74.60
2018-06-18T17:04:53.129Z,76.60
2018-06-18T17:07:21.552Z,76.70
2018-06-18T17:09:50.107Z,79.30
2018-06-18T17:12:19.118Z,76.60
2018-06-18T17:14:48.308Z,76.90
2018-06-18T17:17:16.809Z,78.70
2018-06-18T17:19:45.885Z,78.20
2018-06-18T17:22:15.076Z,80.80
2018-06-18T17:24:43.646Z,80.00
2018-06-18T17:27:12.065Z,80.50
2018-06-18T17:29:40.929Z,81.80
2018-06-18T17:32:09.380Z,80.50
2018-06-18T17:34:38.021Z,80.50
2018-06-18T17:37:06.959Z,81.60
2018-06-18T17:39:36.314Z,81.00
2018-06-18T17:42:05.140Z,81.10
2018-06-18T17:44:33.810Z,79.40
2018-06-18T17:47:03.454Z,82.70
2018-06-18T17:49:31.935Z,80.90
2018-06-18T17:52:00.827Z,82.00
2018-06-18T17:54:29.745Z,83.40
2018-06-18T17:56:58.537Z,83.90
2018-06-18T17:59:27.172Z,86.20
2018-06-18T18:01:57.262Z,85.50
2018-06-18T18:04:25.875Z,87.70
2018-06-18T18:06:54.617Z,86.60
2018-06-18T18:09:24.287Z,88.20
2018-06-18T18:11:52.822Z,88.30
2018-06-18T18:14:22.150Z,87.30
2018-06-18T18:16:51.436Z,86.70
2018-06-18T18:19:20.594Z,86.70
2018-06-18T18:21:50.070Z,87.30
2018-06-18T18:24:18.602Z,89.00
2018-06-18T18:26:48.304Z,88.30
2018-06-18T18:29:17.186Z,89.00
2018-06-18T18:31:45.823Z,90.30
2018-06-18T18:34:14.310Z,90.10
2018-06-18T18:36:43.161Z,90.40
2018-06-18T18:39:12.128Z,90.30
2018-06-18T18:41:41.129Z,89.70
2018-06-18T18:44:10.336Z,89.60
2018-06-18T18:46:38.907Z,91.50
2018-06-18T18:49:07.722Z,91.10
2018-06-18T18:51:36.159Z,91.40
2018-06-18T18:54:05.715Z,91.80
2018-06-18T18:58:47.134Z,91.30
2018-06-18T19:01:16.427Z,92.20
2018-06-18T19:03:57.993Z,93.70
2018-06-18T19:06:26.904Z,93.20
2018-06-18T19:08:57.528Z,93.50
2018-06-18T19:11:26.320Z,93.00
2018-06-18T19:13:54.795Z,93.10
2018-06-18T19:16:29.689Z,93.20
2018-06-18T19:19:01.824Z,93.80
2018-06-18T19:21:31.066Z,94.20
2018-06-18T19:24:00.531Z,94.20
2018-06-18T19:26:30.174Z,94.40
2018-06-18T19:28:59.396Z,95.40
2018-06-18T19:31:28.152Z,95.20
2018-06-18T19:34:16.407Z,95.60
2018-06-18T19:36:48.566Z,96.00
2018-06-18T19:39:18.083Z,96.20
2018-06-18T19:41:46.828Z,96.10
2018-06-18T19:44:15.830Z,96.40
2018-06-18T19:48:06.986Z,96.00
2018-06-18T19:50:35.981Z,95.80
2018-06-18T19:53:05.187Z,95.90
2018-06-18T19:55:34.149Z,96.00
2018-06-18T19:58:03.282Z,96.60
2018-06-18T20:00:49.342Z,98.00
2018-06-18T20:05:47.529Z,99.90
2018-06-18T20:10:46.967Z,99.90
2018-06-18T20:13:15.594Z,99.90
2018-06-18T20:15:44.176Z,99.90
2018-06-18T20:18:13.303Z,99.90
2018-06-18T20:20:42.052Z,99.90
2018-06-18T20:23:14.227Z,99.90
2018-06-18T20:25:45.366Z,99.90
2018-06-18T20:28:14.595Z,99.90
2018-06-18T20:30:43.069Z,99.90
2018-06-18T20:33:13.134Z,99.90
2018-06-18T20:35:44.983Z,99.90
2018-06-18T20:38:13.521Z,99.90
2018-06-18T20:40:41.957Z,99.90
2018-06-18T20:43:10.746Z,99.90
2018-06-18T20:45:39.785Z,99.90
2018-06-18T20:48:08.640Z,99.90
2018-06-18T20:50:37.594Z,99.90
2018-06-18T20:53:06.713Z,99.90
2018-06-18T20:55:35.217Z,99.90
2018-06-18T20:58:04.053Z,99.90
2018-06-18T21:00:32.489Z,99.90
2018-06-18T21:03:00.967Z,99.90
2018-06-18T21:05:32.320Z,99.90
2018-06-18T21:08:01.658Z,99.90
2018-06-18T21:10:30.497Z,99.90
2018-06-18T21:12:59.249Z,99.90
2018-06-18T21:15:29.446Z,99.90
2018-06-18T21:17:58.115Z,99.90
2018-06-18T21:20:27.075Z,99.90
2018-06-18T21:22:55.821Z,99.90
2018-06-18T21:25:24.212Z,99.90
2018-06-18T21:27:55.231Z,99.90
2018-06-18T21:30:24.294Z,99.90
2018-06-18T21:32:52.689Z,99.90
2018-06-18T21:35:22.184Z,99.90
2018-06-18T21:37:51.210Z,99.90
2018-06-18T21:40:19.668Z,99.90
2018-06-18T21:42:48.400Z,99.90
2018-06-18T21:45:19.699Z,99.90
2018-06-18T21:47:49.991Z,99.90
2018-06-18T21:50:18.700Z,99.90
2018-06-18T21:52:47.314Z,99.90
2018-06-18T21:55:16.667Z,99.90
